sensor_id;sensor_type;location;lat;lon;timestamp;temperature;humidity
26707;DHT22;14319;49.422;10.934;2024-01-30T00:00:13;0.90;84.60
26707;DHT22;14319;49.422;10.934;2024-01-30T00:02:14;0.80;85.10
26707;DHT22;14319;49.422;10.934;2024-01-30T00:04:14;0.80;85.60
26707;DHT22;14319;49.422;10.934;2024-01-30T00:06:18;0.80;85.90
26707;DHT22;14319;49.422;10.934;2024-01-30T00:08:19;0.90;85.70
26707;DHT22;14319;49.422;10.934;2024-01-30T00:10:19;0.80;85.70
26707;DHT22;14319;49.422;10.934;2024-01-30T00:12:20;0.80;85.70
26707;DHT22;14319;49.422;10.934;2024-01-30T00:14:21;1.00;85.30
26707;DHT22;14319;49.422;10.934;2024-01-30T00:16:23;1.10;85.50
26707;DHT22;14319;49.422;10.934;2024-01-30T00:18:26;1.20;85.30
26707;DHT22;14319;49.422;10.934;2024-01-30T00:20:27;1.30;84.80
26707;DHT22;14319;49.422;10.934;2024-01-30T00:22:27;1.40;85.00
26707;DHT22;14319;49.422;10.934;2024-01-30T00:24:30;1.50;84.60
26707;DHT22;14319;49.422;10.934;2024-01-30T00:26:31;1.70;84.10
26707;DHT22;14319;49.422;10.934;2024-01-30T00:28:31;1.80;83.50
26707;DHT22;14319;49.422;10.934;2024-01-30T00:30:32;1.80;83.20
26707;DHT22;14319;49.422;10.934;2024-01-30T00:32:33;1.60;83.40
26707;DHT22;14319;49.422;10.934;2024-01-30T00:34:33;1.60;84.20
26707;DHT22;14319;49.422;10.934;2024-01-30T00:36:34;1.50;84.00
26707;DHT22;14319;49.422;10.934;2024-01-30T00:38:35;1.50;83.80
26707;DHT22;14319;49.422;10.934;2024-01-30T00:40:35;1.50;83.70
26707;DHT22;14319;49.422;10.934;2024-01-30T00:42:36;1.50;83.90
26707;DHT22;14319;49.422;10.934;2024-01-30T00:44:36;1.60;83.60
26707;DHT22;14319;49.422;10.934;2024-01-30T00:46:40;1.50;82.80
26707;DHT22;14319;49.422;10.934;2024-01-30T00:48:40;1.20;83.60
26707;DHT22;14319;49.422;10.934;2024-01-30T00:50:41;1.00;84.70
26707;DHT22;14319;49.422;10.934;2024-01-30T00:52:41;1.20;85.10
26707;DHT22;14319;49.422;10.934;2024-01-30T00:54:45;1.10;84.00
26707;DHT22;14319;49.422;10.934;2024-01-30T00:56:45;0.90;84.90
26707;DHT22;14319;49.422;10.934;2024-01-30T00:58:46;0.70;85.30
26707;DHT22;14319;49.422;10.934;2024-01-30T01:00:47;0.50;86.20
26707;DHT22;14319;49.422;10.934;2024-01-30T01:02:47;0.40;86.90
26707;DHT22;14319;49.422;10.934;2024-01-30T01:04:48;0.30;87.70
26707;DHT22;14319;49.422;10.934;2024-01-30T01:06:48;0.40;88.00
26707;DHT22;14319;49.422;10.934;2024-01-30T01:08:49;0.60;88.20
26707;DHT22;14319;49.422;10.934;2024-01-30T01:10:49;0.80;86.90
26707;DHT22;14319;49.422;10.934;2024-01-30T01:12:50;1.00;87.10
26707;DHT22;14319;49.422;10.934;2024-01-30T01:14:51;1.20;86.00
26707;DHT22;14319;49.422;10.934;2024-01-30T01:16:51;1.30;84.50
26707;DHT22;14319;49.422;10.934;2024-01-30T01:18:52;1.10;84.30
26707;DHT22;14319;49.422;10.934;2024-01-30T01:20:52;1.20;84.10
26707;DHT22;14319;49.422;10.934;2024-01-30T01:22:53;1.10;84.20
26707;DHT22;14319;49.422;10.934;2024-01-30T01:24:54;1.10;84.80
26707;DHT22;14319;49.422;10.934;2024-01-30T01:26:54;0.90;84.60
26707;DHT22;14319;49.422;10.934;2024-01-30T01:28:56;0.80;85.20
26707;DHT22;14319;49.422;10.934;2024-01-30T01:30:57;0.80;85.00
26707;DHT22;14319;49.422;10.934;2024-01-30T01:33:01;0.70;85.50
26707;DHT22;14319;49.422;10.934;2024-01-30T01:35:03;0.90;86.10
26707;DHT22;14319;49.422;10.934;2024-01-30T01:37:05;1.00;85.00
26707;DHT22;14319;49.422;10.934;2024-01-30T01:39:07;1.00;84.60
26707;DHT22;14319;49.422;10.934;2024-01-30T01:41:08;1.10;85.10
26707;DHT22;14319;49.422;10.934;2024-01-30T01:43:09;1.00;84.10
26707;DHT22;14319;49.422;10.934;2024-01-30T01:45:09;0.90;84.50
26707;DHT22;14319;49.422;10.934;2024-01-30T01:47:10;0.80;85.60
26707;DHT22;14319;49.422;10.934;2024-01-30T01:49:11;0.80;85.40
26707;DHT22;14319;49.422;10.934;2024-01-30T01:51:12;0.70;86.30
26707;DHT22;14319;49.422;10.934;2024-01-30T01:53:13;0.60;87.40
26707;DHT22;14319;49.422;10.934;2024-01-30T01:55:16;0.80;86.70
26707;DHT22;14319;49.422;10.934;2024-01-30T01:57:19;0.50;86.10
26707;DHT22;14319;49.422;10.934;2024-01-30T01:59:20;0.70;87.40
26707;DHT22;14319;49.422;10.934;2024-01-30T02:01:23;0.80;86.00
26707;DHT22;14319;49.422;10.934;2024-01-30T02:03:24;0.60;86.20
26707;DHT22;14319;49.422;10.934;2024-01-30T02:05:26;0.60;87.60
26707;DHT22;14319;49.422;10.934;2024-01-30T02:07:27;0.80;87.00
26707;DHT22;14319;49.422;10.934;2024-01-30T02:09:28;0.90;86.80
26707;DHT22;14319;49.422;10.934;2024-01-30T02:11:29;1.20;85.80
26707;DHT22;14319;49.422;10.934;2024-01-30T02:13:29;1.30;84.70
26707;DHT22;14319;49.422;10.934;2024-01-30T02:15:30;1.50;84.20
26707;DHT22;14319;49.422;10.934;2024-01-30T02:17:31;1.50;83.80
26707;DHT22;14319;49.422;10.934;2024-01-30T02:19:31;1.30;82.50
26707;DHT22;14319;49.422;10.934;2024-01-30T02:21:32;1.00;83.80
26707;DHT22;14319;49.422;10.934;2024-01-30T02:23:33;0.90;85.60
26707;DHT22;14319;49.422;10.934;2024-01-30T02:25:38;1.20;85.00
26707;DHT22;14319;49.422;10.934;2024-01-30T02:27:39;0.80;84.10
26707;DHT22;14319;49.422;10.934;2024-01-30T02:29:39;0.90;85.70
26707;DHT22;14319;49.422;10.934;2024-01-30T02:31:40;0.80;84.60
26707;DHT22;14319;49.422;10.934;2024-01-30T02:33:41;0.70;85.30
26707;DHT22;14319;49.422;10.934;2024-01-30T02:35:41;0.80;86.20
26707;DHT22;14319;49.422;10.934;2024-01-30T02:37:42;1.10;85.90
26707;DHT22;14319;49.422;10.934;2024-01-30T02:39:42;1.30;84.90
26707;DHT22;14319;49.422;10.934;2024-01-30T02:41:43;1.20;83.70
26707;DHT22;14319;49.422;10.934;2024-01-30T02:43:43;1.30;84.80
26707;DHT22;14319;49.422;10.934;2024-01-30T02:45:44;1.50;83.40
26707;DHT22;14319;49.422;10.934;2024-01-30T02:47:45;1.50;82.60
26707;DHT22;14319;49.422;10.934;2024-01-30T02:49:46;1.50;82.10
26707;DHT22;14319;49.422;10.934;2024-01-30T02:51:46;1.20;82.40
26707;DHT22;14319;49.422;10.934;2024-01-30T02:53:47;1.00;83.20
26707;DHT22;14319;49.422;10.934;2024-01-30T02:55:47;1.00;84.10
26707;DHT22;14319;49.422;10.934;2024-01-30T02:57:48;1.10;84.70
26707;DHT22;14319;49.422;10.934;2024-01-30T02:59:49;1.10;83.60
26707;DHT22;14319;49.422;10.934;2024-01-30T03:01:49;1.10;84.20
26707;DHT22;14319;49.422;10.934;2024-01-30T03:03:50;1.10;84.00
26707;DHT22;14319;49.422;10.934;2024-01-30T03:05:50;1.20;83.60
26707;DHT22;14319;49.422;10.934;2024-01-30T03:07:51;1.30;83.00
26707;DHT22;14319;49.422;10.934;2024-01-30T03:09:51;1.20;81.60
26707;DHT22;14319;49.422;10.934;2024-01-30T03:11:52;0.90;82.90
26707;DHT22;14319;49.422;10.934;2024-01-30T03:13:53;0.80;84.00
26707;DHT22;14319;49.422;10.934;2024-01-30T03:15:53;0.70;83.60
26707;DHT22;14319;49.422;10.934;2024-01-30T03:17:54;0.60;84.80
26707;DHT22;14319;49.422;10.934;2024-01-30T03:19:54;0.60;84.80
26707;DHT22;14319;49.422;10.934;2024-01-30T03:21:55;0.50;85.10
26707;DHT22;14319;49.422;10.934;2024-01-30T03:23:56;0.50;85.90
26707;DHT22;14319;49.422;10.934;2024-01-30T03:25:56;0.60;85.30
26707;DHT22;14319;49.422;10.934;2024-01-30T03:27:57;0.60;84.50
26707;DHT22;14319;49.422;10.934;2024-01-30T03:29:57;0.40;85.80
26707;DHT22;14319;49.422;10.934;2024-01-30T03:31:58;0.60;85.70
26707;DHT22;14319;49.422;10.934;2024-01-30T03:33:58;0.50;84.10
26707;DHT22;14319;49.422;10.934;2024-01-30T03:36:03;0.60;85.50
26707;DHT22;14319;49.422;10.934;2024-01-30T03:38:04;0.60;84.30
26707;DHT22;14319;49.422;10.934;2024-01-30T03:40:05;0.80;84.20
26707;DHT22;14319;49.422;10.934;2024-01-30T03:42:05;0.90;84.40
26707;DHT22;14319;49.422;10.934;2024-01-30T03:44:06;1.00;83.40
26707;DHT22;14319;49.422;10.934;2024-01-30T03:46:06;1.10;83.10
26707;DHT22;14319;49.422;10.934;2024-01-30T03:48:07;1.20;81.90
26707;DHT22;14319;49.422;10.934;2024-01-30T03:50:08;1.30;81.70
26707;DHT22;14319;49.422;10.934;2024-01-30T03:52:08;1.20;81.90
26707;DHT22;14319;49.422;10.934;2024-01-30T03:54:09;1.20;81.40
26707;DHT22;14319;49.422;10.934;2024-01-30T03:56:10;0.90;81.00
26707;DHT22;14319;49.422;10.934;2024-01-30T03:58:10;0.80;82.60
26707;DHT22;14319;49.422;10.934;2024-01-30T04:00:11;0.70;82.80
26707;DHT22;14319;49.422;10.934;2024-01-30T04:02:15;0.70;83.50
26707;DHT22;14319;49.422;10.934;2024-01-30T04:04:16;0.60;83.10
26707;DHT22;14319;49.422;10.934;2024-01-30T04:06:17;0.50;83.60
26707;DHT22;14319;49.422;10.934;2024-01-30T04:08:17;0.30;83.70
26707;DHT22;14319;49.422;10.934;2024-01-30T04:10:18;0.20;84.30
26707;DHT22;14319;49.422;10.934;2024-01-30T04:12:18;0.00;85.70
26707;DHT22;14319;49.422;10.934;2024-01-30T04:14:19;0.00;86.40
26707;DHT22;14319;49.422;10.934;2024-01-30T04:16:23;-0.10;86.60
26707;DHT22;14319;49.422;10.934;2024-01-30T04:18:23;-0.10;86.80
26707;DHT22;14319;49.422;10.934;2024-01-30T04:20:24;0.00;86.80
26707;DHT22;14319;49.422;10.934;2024-01-30T04:22:25;-0.10;86.30
26707;DHT22;14319;49.422;10.934;2024-01-30T04:24:25;-0.10;86.50
26707;DHT22;14319;49.422;10.934;2024-01-30T04:26:26;-0.20;87.10
26707;DHT22;14319;49.422;10.934;2024-01-30T04:28:26;-0.10;87.50
26707;DHT22;14319;49.422;10.934;2024-01-30T04:30:27;-0.10;87.10
26707;DHT22;14319;49.422;10.934;2024-01-30T04:32:27;0.00;86.80
26707;DHT22;14319;49.422;10.934;2024-01-30T04:34:28;-0.10;86.70
26707;DHT22;14319;49.422;10.934;2024-01-30T04:36:28;0.10;87.30
26707;DHT22;14319;49.422;10.934;2024-01-30T04:38:29;0.40;86.00
26707;DHT22;14319;49.422;10.934;2024-01-30T04:40:29;0.50;84.80
26707;DHT22;14319;49.422;10.934;2024-01-30T04:42:30;0.50;85.30
26707;DHT22;14319;49.422;10.934;2024-01-30T04:44:31;0.60;84.80
26707;DHT22;14319;49.422;10.934;2024-01-30T04:46:31;0.50;84.20
26707;DHT22;14319;49.422;10.934;2024-01-30T04:48:32;0.60;83.90
26707;DHT22;14319;49.422;10.934;2024-01-30T04:50:32;0.40;84.90
26707;DHT22;14319;49.422;10.934;2024-01-30T04:52:33;0.40;85.30
26707;DHT22;14319;49.422;10.934;2024-01-30T04:54:34;0.50;85.30
26707;DHT22;14319;49.422;10.934;2024-01-30T04:56:35;0.50;85.00
26707;DHT22;14319;49.422;10.934;2024-01-30T04:58:36;0.40;85.00
26707;DHT22;14319;49.422;10.934;2024-01-30T05:00:36;0.30;85.80
26707;DHT22;14319;49.422;10.934;2024-01-30T05:02:37;0.20;86.10
26707;DHT22;14319;49.422;10.934;2024-01-30T05:04:37;0.10;87.00
26707;DHT22;14319;49.422;10.934;2024-01-30T05:06:38;0.40;86.60
26707;DHT22;14319;49.422;10.934;2024-01-30T05:08:39;0.50;85.10
26707;DHT22;14319;49.422;10.934;2024-01-30T05:10:39;0.40;84.50
26707;DHT22;14319;49.422;10.934;2024-01-30T05:12:40;0.50;85.20
26707;DHT22;14319;49.422;10.934;2024-01-30T05:14:41;0.60;84.40
26707;DHT22;14319;49.422;10.934;2024-01-30T05:16:41;0.90;83.70
26707;DHT22;14319;49.422;10.934;2024-01-30T05:18:47;0.90;83.10
26707;DHT22;14319;49.422;10.934;2024-01-30T05:20:47;0.80;82.50
26707;DHT22;14319;49.422;10.934;2024-01-30T05:22:48;0.70;82.90
26707;DHT22;14319;49.422;10.934;2024-01-30T05:24:48;0.40;84.10
26707;DHT22;14319;49.422;10.934;2024-01-30T05:26:49;0.20;85.60
26707;DHT22;14319;49.422;10.934;2024-01-30T05:28:51;0.20;86.50
26707;DHT22;14319;49.422;10.934;2024-01-30T05:30:52;0.40;86.00
26707;DHT22;14319;49.422;10.934;2024-01-30T05:32:52;0.30;85.00
26707;DHT22;14319;49.422;10.934;2024-01-30T05:34:53;0.30;86.20
26707;DHT22;14319;49.422;10.934;2024-01-30T05:36:53;0.50;86.50
26707;DHT22;14319;49.422;10.934;2024-01-30T05:38:54;0.60;84.70
26707;DHT22;14319;49.422;10.934;2024-01-30T05:40:55;0.50;85.50
26707;DHT22;14319;49.422;10.934;2024-01-30T05:42:56;0.50;85.50
26707;DHT22;14319;49.422;10.934;2024-01-30T05:44:56;0.50;85.70
26707;DHT22;14319;49.422;10.934;2024-01-30T05:46:57;0.60;86.30
26707;DHT22;14319;49.422;10.934;2024-01-30T05:48:58;0.60;86.00
26707;DHT22;14319;49.422;10.934;2024-01-30T05:50:58;0.60;85.80
26707;DHT22;14319;49.422;10.934;2024-01-30T05:53:00;0.60;85.30
26707;DHT22;14319;49.422;10.934;2024-01-30T05:55:00;0.50;86.20
26707;DHT22;14319;49.422;10.934;2024-01-30T05:57:01;0.60;86.40
26707;DHT22;14319;49.422;10.934;2024-01-30T05:59:02;0.90;85.40
26707;DHT22;14319;49.422;10.934;2024-01-30T06:01:06;1.00;84.70
26707;DHT22;14319;49.422;10.934;2024-01-30T06:03:07;1.10;84.10
26707;DHT22;14319;49.422;10.934;2024-01-30T06:05:08;1.10;83.80
26707;DHT22;14319;49.422;10.934;2024-01-30T06:07:09;0.90;84.20
26707;DHT22;14319;49.422;10.934;2024-01-30T06:09:09;1.00;84.70
26707;DHT22;14319;49.422;10.934;2024-01-30T06:11:11;1.10;84.60
26707;DHT22;14319;49.422;10.934;2024-01-30T06:13:12;1.10;83.80
26707;DHT22;14319;49.422;10.934;2024-01-30T06:15:13;1.00;84.00
26707;DHT22;14319;49.422;10.934;2024-01-30T06:17:13;0.90;84.90
26707;DHT22;14319;49.422;10.934;2024-01-30T06:19:14;0.80;85.80
26707;DHT22;14319;49.422;10.934;2024-01-30T06:21:15;0.80;86.00
26707;DHT22;14319;49.422;10.934;2024-01-30T06:23:15;0.90;85.80
26707;DHT22;14319;49.422;10.934;2024-01-30T06:25:16;0.90;86.10
26707;DHT22;14319;49.422;10.934;2024-01-30T06:27:17;0.90;85.50
26707;DHT22;14319;49.422;10.934;2024-01-30T06:29:20;0.90;85.40
26707;DHT22;14319;49.422;10.934;2024-01-30T06:31:21;0.90;86.30
26707;DHT22;14319;49.422;10.934;2024-01-30T06:33:22;1.00;85.70
26707;DHT22;14319;49.422;10.934;2024-01-30T06:35:22;0.90;85.70
26707;DHT22;14319;49.422;10.934;2024-01-30T06:37:23;1.00;85.90
26707;DHT22;14319;49.422;10.934;2024-01-30T06:39:25;1.10;86.00
26707;DHT22;14319;49.422;10.934;2024-01-30T06:41:25;1.10;85.60
26707;DHT22;14319;49.422;10.934;2024-01-30T06:43:26;1.10;85.40
26707;DHT22;14319;49.422;10.934;2024-01-30T06:45:26;1.10;85.00
26707;DHT22;14319;49.422;10.934;2024-01-30T06:47:27;1.20;85.20
26707;DHT22;14319;49.422;10.934;2024-01-30T06:49:29;1.20;85.20
26707;DHT22;14319;49.422;10.934;2024-01-30T06:51:29;1.20;85.00
26707;DHT22;14319;49.422;10.934;2024-01-30T06:53:30;1.20;85.00
26707;DHT22;14319;49.422;10.934;2024-01-30T06:55:30;1.30;85.20
26707;DHT22;14319;49.422;10.934;2024-01-30T06:57:31;1.40;84.70
26707;DHT22;14319;49.422;10.934;2024-01-30T06:59:32;1.40;84.60
26707;DHT22;14319;49.422;10.934;2024-01-30T07:01:32;1.40;84.30
26707;DHT22;14319;49.422;10.934;2024-01-30T07:03:33;1.30;84.10
26707;DHT22;14319;49.422;10.934;2024-01-30T07:05:34;1.30;84.80
26707;DHT22;14319;49.422;10.934;2024-01-30T07:07:34;1.40;85.10
26707;DHT22;14319;49.422;10.934;2024-01-30T07:09:35;1.40;84.70
26707;DHT22;14319;49.422;10.934;2024-01-30T07:11:36;1.20;84.50
26707;DHT22;14319;49.422;10.934;2024-01-30T07:13:37;1.20;85.70
26707;DHT22;14319;49.422;10.934;2024-01-30T07:15:38;1.30;85.50
26707;DHT22;14319;49.422;10.934;2024-01-30T07:17:38;1.20;85.10
26707;DHT22;14319;49.422;10.934;2024-01-30T07:19:39;1.20;86.50
26707;DHT22;14319;49.422;10.934;2024-01-30T07:21:40;1.20;85.60
26707;DHT22;14319;49.422;10.934;2024-01-30T07:23:40;1.20;85.60
26707;DHT22;14319;49.422;10.934;2024-01-30T07:25:43;1.30;85.90
26707;DHT22;14319;49.422;10.934;2024-01-30T07:27:43;1.40;85.80
26707;DHT22;14319;49.422;10.934;2024-01-30T07:29:44;1.40;85.30
26707;DHT22;14319;49.422;10.934;2024-01-30T07:31:44;1.30;85.30
26707;DHT22;14319;49.422;10.934;2024-01-30T07:33:45;1.30;86.30
26707;DHT22;14319;49.422;10.934;2024-01-30T07:35:46;1.40;85.90
26707;DHT22;14319;49.422;10.934;2024-01-30T07:37:46;1.50;85.80
26707;DHT22;14319;49.422;10.934;2024-01-30T07:39:47;1.50;85.50
26707;DHT22;14319;49.422;10.934;2024-01-30T07:41:48;1.60;85.90
26707;DHT22;14319;49.422;10.934;2024-01-30T07:43:48;1.60;85.40
26707;DHT22;14319;49.422;10.934;2024-01-30T07:45:49;1.70;85.80
26707;DHT22;14319;49.422;10.934;2024-01-30T07:47:50;1.70;85.70
26707;DHT22;14319;49.422;10.934;2024-01-30T07:49:51;1.70;85.70
26707;DHT22;14319;49.422;10.934;2024-01-30T07:51:51;1.80;85.70
26707;DHT22;14319;49.422;10.934;2024-01-30T07:53:52;1.80;85.40
26707;DHT22;14319;49.422;10.934;2024-01-30T07:55:53;1.90;85.50
26707;DHT22;14319;49.422;10.934;2024-01-30T07:57:53;2.00;85.30
26707;DHT22;14319;49.422;10.934;2024-01-30T07:59:54;2.00;85.90
26707;DHT22;14319;49.422;10.934;2024-01-30T08:01:55;2.10;85.00
26707;DHT22;14319;49.422;10.934;2024-01-30T08:03:55;2.10;85.10
26707;DHT22;14319;49.422;10.934;2024-01-30T08:05:56;2.10;84.90
26707;DHT22;14319;49.422;10.934;2024-01-30T08:07:56;2.20;84.80
26707;DHT22;14319;49.422;10.934;2024-01-30T08:09:57;2.30;84.60
26707;DHT22;14319;49.422;10.934;2024-01-30T08:11:58;2.40;84.40
26707;DHT22;14319;49.422;10.934;2024-01-30T08:13:58;2.60;84.40
26707;DHT22;14319;49.422;10.934;2024-01-30T08:15:59;2.60;84.20
26707;DHT22;14319;49.422;10.934;2024-01-30T08:18:00;2.60;84.20
26707;DHT22;14319;49.422;10.934;2024-01-30T08:20:00;2.60;84.20
26707;DHT22;14319;49.422;10.934;2024-01-30T08:22:01;2.70;84.20
26707;DHT22;14319;49.422;10.934;2024-01-30T08:24:05;2.60;84.70
26707;DHT22;14319;49.422;10.934;2024-01-30T08:26:05;2.70;85.00
26707;DHT22;14319;49.422;10.934;2024-01-30T08:28:06;2.70;84.60
26707;DHT22;14319;49.422;10.934;2024-01-30T08:30:08;2.70;85.50
26707;DHT22;14319;49.422;10.934;2024-01-30T08:32:08;2.80;85.30
26707;DHT22;14319;49.422;10.934;2024-01-30T08:34:09;2.80;85.00
26707;DHT22;14319;49.422;10.934;2024-01-30T08:36:09;2.90;85.40
26707;DHT22;14319;49.422;10.934;2024-01-30T08:38:10;2.90;84.40
26707;DHT22;14319;49.422;10.934;2024-01-30T08:40:13;3.00;84.40
26707;DHT22;14319;49.422;10.934;2024-01-30T08:42:13;3.10;84.20
26707;DHT22;14319;49.422;10.934;2024-01-30T08:44:14;3.10;83.90
26707;DHT22;14319;49.422;10.934;2024-01-30T08:46:18;3.10;83.90
26707;DHT22;14319;49.422;10.934;2024-01-30T08:48:18;3.10;84.20
26707;DHT22;14319;49.422;10.934;2024-01-30T08:50:19;3.20;83.90
26707;DHT22;14319;49.422;10.934;2024-01-30T08:52:19;3.30;83.70
26707;DHT22;14319;49.422;10.934;2024-01-30T08:54:20;3.30;83.50
26707;DHT22;14319;49.422;10.934;2024-01-30T08:56:21;3.40;83.30
26707;DHT22;14319;49.422;10.934;2024-01-30T08:58:21;3.40;83.20
26707;DHT22;14319;49.422;10.934;2024-01-30T09:00:22;3.50;83.30
26707;DHT22;14319;49.422;10.934;2024-01-30T09:02:22;3.50;83.60
26707;DHT22;14319;49.422;10.934;2024-01-30T09:04:23;3.50;83.60
26707;DHT22;14319;49.422;10.934;2024-01-30T09:06:24;3.60;83.20
26707;DHT22;14319;49.422;10.934;2024-01-30T09:08:27;3.60;83.50
26707;DHT22;14319;49.422;10.934;2024-01-30T09:10:27;3.70;83.50
26707;DHT22;14319;49.422;10.934;2024-01-30T09:12:28;3.70;83.30
26707;DHT22;14319;49.422;10.934;2024-01-30T09:14:28;3.80;83.20
26707;DHT22;14319;49.422;10.934;2024-01-30T09:16:29;3.80;83.10
26707;DHT22;14319;49.422;10.934;2024-01-30T09:18:30;3.90;83.30
26707;DHT22;14319;49.422;10.934;2024-01-30T09:20:30;3.90;84.20
26707;DHT22;14319;49.422;10.934;2024-01-30T09:22:31;4.00;83.30
26707;DHT22;14319;49.422;10.934;2024-01-30T09:24:32;4.00;82.90
26707;DHT22;14319;49.422;10.934;2024-01-30T09:26:32;4.00;83.00
26707;DHT22;14319;49.422;10.934;2024-01-30T09:28:33;4.10;83.50
26707;DHT22;14319;49.422;10.934;2024-01-30T09:30:33;4.10;83.80
26707;DHT22;14319;49.422;10.934;2024-01-30T09:32:34;4.00;83.40
26707;DHT22;14319;49.422;10.934;2024-01-30T09:34:35;4.20;83.10
26707;DHT22;14319;49.422;10.934;2024-01-30T09:36:35;4.30;82.80
26707;DHT22;14319;49.422;10.934;2024-01-30T09:38:36;4.30;83.40
26707;DHT22;14319;49.422;10.934;2024-01-30T09:40:36;4.30;83.30
26707;DHT22;14319;49.422;10.934;2024-01-30T09:42:37;4.40;82.50
26707;DHT22;14319;49.422;10.934;2024-01-30T09:44:38;4.40;82.20
26707;DHT22;14319;49.422;10.934;2024-01-30T09:46:45;4.50;82.00
26707;DHT22;14319;49.422;10.934;2024-01-30T09:48:47;4.50;82.10
26707;DHT22;14319;49.422;10.934;2024-01-30T09:50:48;4.60;82.20
26707;DHT22;14319;49.422;10.934;2024-01-30T09:52:49;4.60;82.20
26707;DHT22;14319;49.422;10.934;2024-01-30T09:54:51;4.60;82.20
26707;DHT22;14319;49.422;10.934;2024-01-30T09:56:53;4.60;82.50
26707;DHT22;14319;49.422;10.934;2024-01-30T09:58:54;4.70;82.20
26707;DHT22;14319;49.422;10.934;2024-01-30T10:00:54;4.70;82.50
26707;DHT22;14319;49.422;10.934;2024-01-30T10:02:55;4.80;82.40
26707;DHT22;14319;49.422;10.934;2024-01-30T10:04:56;4.80;83.20
26707;DHT22;14319;49.422;10.934;2024-01-30T10:06:56;4.80;82.90
26707;DHT22;14319;49.422;10.934;2024-01-30T10:08:59;4.90;82.90
26707;DHT22;14319;49.422;10.934;2024-01-30T10:11:00;5.00;82.50
26707;DHT22;14319;49.422;10.934;2024-01-30T10:13:02;5.10;82.20
26707;DHT22;14319;49.422;10.934;2024-01-30T10:15:03;5.00;82.10
26707;DHT22;14319;49.422;10.934;2024-01-30T10:17:09;5.00;82.30
26707;DHT22;14319;49.422;10.934;2024-01-30T10:19:10;5.10;82.30
26707;DHT22;14319;49.422;10.934;2024-01-30T10:21:11;5.10;82.40
26707;DHT22;14319;49.422;10.934;2024-01-30T10:23:11;5.10;82.20
26707;DHT22;14319;49.422;10.934;2024-01-30T10:25:12;5.20;82.00
26707;DHT22;14319;49.422;10.934;2024-01-30T10:27:13;5.20;82.20
26707;DHT22;14319;49.422;10.934;2024-01-30T10:29:14;5.30;82.40
26707;DHT22;14319;49.422;10.934;2024-01-30T10:31:18;5.30;83.00
26707;DHT22;14319;49.422;10.934;2024-01-30T10:33:19;5.30;82.10
26707;DHT22;14319;49.422;10.934;2024-01-30T10:35:19;5.40;81.80
26707;DHT22;14319;49.422;10.934;2024-01-30T10:37:21;5.50;82.00
26707;DHT22;14319;49.422;10.934;2024-01-30T10:39:29;5.40;82.10
26707;DHT22;14319;49.422;10.934;2024-01-30T10:41:31;5.50;82.20
26707;DHT22;14319;49.422;10.934;2024-01-30T10:43:40;5.50;81.80
26707;DHT22;14319;49.422;10.934;2024-01-30T10:45:43;5.60;81.60
26707;DHT22;14319;49.422;10.934;2024-01-30T10:47:49;5.60;81.60
26707;DHT22;14319;49.422;10.934;2024-01-30T10:49:51;5.60;81.50
26707;DHT22;14319;49.422;10.934;2024-01-30T10:51:52;5.70;81.70
26707;DHT22;14319;49.422;10.934;2024-01-30T10:53:56;5.70;81.30
26707;DHT22;14319;49.422;10.934;2024-01-30T10:55:57;5.80;81.40
26707;DHT22;14319;49.422;10.934;2024-01-30T10:57:59;5.80;81.20
26707;DHT22;14319;49.422;10.934;2024-01-30T11:00:08;5.90;81.20
26707;DHT22;14319;49.422;10.934;2024-01-30T11:02:13;5.90;81.30
26707;DHT22;14319;49.422;10.934;2024-01-30T11:04:14;6.00;81.80
26707;DHT22;14319;49.422;10.934;2024-01-30T11:06:15;6.00;81.20
26707;DHT22;14319;49.422;10.934;2024-01-30T11:08:25;6.10;81.00
26707;DHT22;14319;49.422;10.934;2024-01-30T11:10:31;6.20;80.50
26707;DHT22;14319;49.422;10.934;2024-01-30T11:12:33;6.20;82.00
26707;DHT22;14319;49.422;10.934;2024-01-30T11:14:37;6.20;81.20
26707;DHT22;14319;49.422;10.934;2024-01-30T11:16:40;6.30;80.70
26707;DHT22;14319;49.422;10.934;2024-01-30T11:18:41;6.40;81.20
26707;DHT22;14319;49.422;10.934;2024-01-30T11:20:46;6.30;81.90
26707;DHT22;14319;49.422;10.934;2024-01-30T11:22:49;6.40;81.70
26707;DHT22;14319;49.422;10.934;2024-01-30T11:24:51;6.40;81.70
26707;DHT22;14319;49.422;10.934;2024-01-30T11:26:58;6.50;80.90
26707;DHT22;14319;49.422;10.934;2024-01-30T11:29:03;6.60;80.90
26707;DHT22;14319;49.422;10.934;2024-01-30T11:31:05;6.60;80.30
26707;DHT22;14319;49.422;10.934;2024-01-30T11:33:11;6.60;80.40
26707;DHT22;14319;49.422;10.934;2024-01-30T11:35:12;6.70;80.20
26707;DHT22;14319;49.422;10.934;2024-01-30T11:37:13;6.70;80.50
26707;DHT22;14319;49.422;10.934;2024-01-30T11:39:17;6.70;80.70
26707;DHT22;14319;49.422;10.934;2024-01-30T11:41:20;6.80;80.00
26707;DHT22;14319;49.422;10.934;2024-01-30T11:43:22;6.80;80.20
26707;DHT22;14319;49.422;10.934;2024-01-30T11:45:23;6.90;80.80
26707;DHT22;14319;49.422;10.934;2024-01-30T11:47:24;6.90;81.30
26707;DHT22;14319;49.422;10.934;2024-01-30T11:49:25;6.90;80.60
26707;DHT22;14319;49.422;10.934;2024-01-30T11:51:25;7.00;79.80
26707;DHT22;14319;49.422;10.934;2024-01-30T11:53:27;7.10;79.90
26707;DHT22;14319;49.422;10.934;2024-01-30T11:55:29;7.10;79.80
26707;DHT22;14319;49.422;10.934;2024-01-30T11:57:30;7.10;79.70
26707;DHT22;14319;49.422;10.934;2024-01-30T11:59:31;7.10;79.70
26707;DHT22;14319;49.422;10.934;2024-01-30T12:01:32;7.10;80.30
26707;DHT22;14319;49.422;10.934;2024-01-30T12:03:33;7.20;80.50
26707;DHT22;14319;49.422;10.934;2024-01-30T12:05:33;7.20;80.00
26707;DHT22;14319;49.422;10.934;2024-01-30T12:07:34;7.20;79.90
26707;DHT22;14319;49.422;10.934;2024-01-30T12:09:35;7.30;79.50
26707;DHT22;14319;49.422;10.934;2024-01-30T12:11:48;7.30;79.10
26707;DHT22;14319;49.422;10.934;2024-01-30T12:13:51;7.40;78.40
26707;DHT22;14319;49.422;10.934;2024-01-30T12:15:52;7.40;79.00
26707;DHT22;14319;49.422;10.934;2024-01-30T12:18:04;7.40;78.70
26707;DHT22;14319;49.422;10.934;2024-01-30T12:22:10;7.60;78.60
26707;DHT22;14319;49.422;10.934;2024-01-30T12:24:11;7.60;80.10
26707;DHT22;14319;49.422;10.934;2024-01-30T12:26:12;7.50;79.60
26707;DHT22;14319;49.422;10.934;2024-01-30T12:28:13;7.50;79.60
26707;DHT22;14319;49.422;10.934;2024-01-30T12:30:15;7.60;78.20
26707;DHT22;14319;49.422;10.934;2024-01-30T12:32:16;7.70;78.50
26707;DHT22;14319;49.422;10.934;2024-01-30T12:34:17;7.70;78.10
26707;DHT22;14319;49.422;10.934;2024-01-30T12:36:18;7.70;79.20
26707;DHT22;14319;49.422;10.934;2024-01-30T12:38:18;7.70;78.60
26707;DHT22;14319;49.422;10.934;2024-01-30T12:40:19;7.70;79.80
26707;DHT22;14319;49.422;10.934;2024-01-30T12:42:20;7.70;79.10
26707;DHT22;14319;49.422;10.934;2024-01-30T12:44:23;7.70;80.60
26707;DHT22;14319;49.422;10.934;2024-01-30T12:46:30;7.80;78.80